sensor_id;sensor_type;location;lat;lon;timestamp;P1;durP1;ratioP1;P2;durP2;ratioP2
4355;SDS011;64374;51.482;7.408;2023-07-08T00:01:37;4.20;;;3.00;;
4355;SDS011;64374;51.482;7.408;2023-07-08T00:04:06;3.03;;;2.70;;
4355;SDS011;64374;51.482;7.408;2023-07-08T00:06:37;4.30;;;2.73;;
4355;SDS011;64374;51.482;7.408;2023-07-08T00:09:07;2.57;;;2.33;;
4355;SDS011;64374;51.482;7.408;2023-07-08T00:11:38;3.25;;;2.95;;
4355;SDS011;64374;51.482;7.408;2023-07-08T00:14:07;3.70;;;2.63;;
4355;SDS011;64374;51.482;7.408;2023-07-08T00:16:36;4.57;;;2.85;;
4355;SDS011;64374;51.482;7.408;2023-07-08T00:19:08;4.43;;;3.10;;
4355;SDS011;64374;51.482;7.408;2023-07-08T00:21:40;3.85;;;2.80;;
4355;SDS011;64374;51.482;7.408;2023-07-08T00:24:33;5.10;;;2.80;;
4355;SDS011;64374;51.482;7.408;2023-07-08T00:27:01;4.68;;;2.50;;
4355;SDS011;64374;51.482;7.408;2023-07-08T00:29:30;4.70;;;2.88;;
4355;SDS011;64374;51.482;7.408;2023-07-08T00:32:00;4.80;;;3.00;;
4355;SDS011;64374;51.482;7.408;2023-07-08T00:34:29;3.58;;;2.65;;
4355;SDS011;64374;51.482;7.408;2023-07-08T00:36:57;5.55;;;2.95;;
4355;SDS011;64374;51.482;7.408;2023-07-08T00:39:26;2.85;;;2.65;;
4355;SDS011;64374;51.482;7.408;2023-07-08T00:41:54;4.68;;;2.88;;
4355;SDS011;64374;51.482;7.408;2023-07-08T00:44:23;3.80;;;3.10;;
4355;SDS011;64374;51.482;7.408;2023-07-08T00:46:55;5.40;;;3.10;;
4355;SDS011;64374;51.482;7.408;2023-07-08T00:49:34;7.13;;;3.60;;
4355;SDS011;64374;51.482;7.408;2023-07-08T00:52:21;3.30;;;2.97;;
4355;SDS011;64374;51.482;7.408;2023-07-08T00:54:59;3.10;;;2.80;;
4355;SDS011;64374;51.482;7.408;2023-07-08T00:57:33;5.15;;;3.40;;
4355;SDS011;64374;51.482;7.408;2023-07-08T01:00:04;5.65;;;2.75;;
4355;SDS011;64374;51.482;7.408;2023-07-08T01:02:43;3.90;;;3.00;;
4355;SDS011;64374;51.482;7.408;2023-07-08T01:05:37;3.88;;;2.70;;
4355;SDS011;64374;51.482;7.408;2023-07-08T01:08:09;5.60;;;3.13;;
4355;SDS011;64374;51.482;7.408;2023-07-08T01:10:39;3.60;;;3.30;;
4355;SDS011;64374;51.482;7.408;2023-07-08T01:13:13;5.10;;;2.92;;
4355;SDS011;64374;51.482;7.408;2023-07-08T01:15:45;5.40;;;3.00;;
4355;SDS011;64374;51.482;7.408;2023-07-08T01:18:16;8.27;;;3.03;;
4355;SDS011;64374;51.482;7.408;2023-07-08T01:20:51;5.07;;;3.00;;
4355;SDS011;64374;51.482;7.408;2023-07-08T01:23:23;5.35;;;3.00;;
4355;SDS011;64374;51.482;7.408;2023-07-08T01:25:52;4.53;;;3.07;;
4355;SDS011;64374;51.482;7.408;2023-07-08T01:28:24;3.70;;;3.10;;
4355;SDS011;64374;51.482;7.408;2023-07-08T01:30:53;7.43;;;2.90;;
4355;SDS011;64374;51.482;7.408;2023-07-08T01:33:24;4.13;;;2.97;;
4355;SDS011;64374;51.482;7.408;2023-07-08T01:35:54;6.00;;;3.38;;
4355;SDS011;64374;51.482;7.408;2023-07-08T01:38:25;6.00;;;3.30;;
4355;SDS011;64374;51.482;7.408;2023-07-08T01:40:57;6.88;;;2.50;;
4355;SDS011;64374;51.482;7.408;2023-07-08T01:43:28;4.25;;;2.78;;
4355;SDS011;64374;51.482;7.408;2023-07-08T01:45:57;3.30;;;3.00;;
4355;SDS011;64374;51.482;7.408;2023-07-08T01:48:30;5.15;;;2.70;;
4355;SDS011;64374;51.482;7.408;2023-07-08T01:51:03;3.70;;;2.83;;
4355;SDS011;64374;51.482;7.408;2023-07-08T01:53:35;3.03;;;2.60;;
4355;SDS011;64374;51.482;7.408;2023-07-08T01:56:06;5.53;;;3.20;;
4355;SDS011;64374;51.482;7.408;2023-07-08T01:58:35;4.07;;;3.30;;
4355;SDS011;64374;51.482;7.408;2023-07-08T02:01:04;6.03;;;2.67;;
4355;SDS011;64374;51.482;7.408;2023-07-08T02:03:33;4.57;;;3.50;;
4355;SDS011;64374;51.482;7.408;2023-07-08T02:06:02;7.10;;;2.70;;
4355;SDS011;64374;51.482;7.408;2023-07-08T02:08:31;3.73;;;3.10;;
4355;SDS011;64374;51.482;7.408;2023-07-08T02:11:01;3.20;;;2.67;;
4355;SDS011;64374;51.482;7.408;2023-07-08T02:13:31;4.90;;;3.22;;
4355;SDS011;64374;51.482;7.408;2023-07-08T02:16:23;6.10;;;3.10;;
4355;SDS011;64374;51.482;7.408;2023-07-08T02:18:52;6.80;;;3.40;;
4355;SDS011;64374;51.482;7.408;2023-07-08T02:21:20;4.57;;;3.13;;
4355;SDS011;64374;51.482;7.408;2023-07-08T02:23:50;4.32;;;3.20;;
4355;SDS011;64374;51.482;7.408;2023-07-08T02:26:22;6.97;;;3.13;;
4355;SDS011;64374;51.482;7.408;2023-07-08T02:28:50;4.60;;;3.40;;
4355;SDS011;64374;51.482;7.408;2023-07-08T02:31:19;5.88;;;3.50;;
4355;SDS011;64374;51.482;7.408;2023-07-08T02:33:49;5.28;;;3.00;;
4355;SDS011;64374;51.482;7.408;2023-07-08T02:36:17;6.20;;;3.40;;
4355;SDS011;64374;51.482;7.408;2023-07-08T02:38:45;5.30;;;3.10;;
4355;SDS011;64374;51.482;7.408;2023-07-08T02:41:14;4.68;;;2.90;;
4355;SDS011;64374;51.482;7.408;2023-07-08T02:43:48;3.47;;;2.70;;
4355;SDS011;64374;51.482;7.408;2023-07-08T02:46:17;4.85;;;2.90;;
4355;SDS011;64374;51.482;7.408;2023-07-08T02:48:45;4.20;;;2.90;;
4355;SDS011;64374;51.482;7.408;2023-07-08T02:51:14;3.60;;;3.28;;
4355;SDS011;64374;51.482;7.408;2023-07-08T02:53:42;7.03;;;3.47;;
4355;SDS011;64374;51.482;7.408;2023-07-08T02:56:11;4.35;;;3.28;;
4355;SDS011;64374;51.482;7.408;2023-07-08T02:58:39;5.13;;;3.90;;
4355;SDS011;64374;51.482;7.408;2023-07-08T03:01:09;4.15;;;2.95;;
4355;SDS011;64374;51.482;7.408;2023-07-08T03:03:40;6.57;;;3.40;;
4355;SDS011;64374;51.482;7.408;2023-07-08T03:06:09;7.93;;;3.20;;
4355;SDS011;64374;51.482;7.408;2023-07-08T03:08:39;6.38;;;3.10;;
4355;SDS011;64374;51.482;7.408;2023-07-08T03:11:08;5.20;;;2.97;;
4355;SDS011;64374;51.482;7.408;2023-07-08T03:13:37;5.05;;;3.38;;
4355;SDS011;64374;51.482;7.408;2023-07-08T03:16:07;4.07;;;3.45;;
4355;SDS011;64374;51.482;7.408;2023-07-08T03:18:41;3.30;;;3.00;;
4355;SDS011;64374;51.482;7.408;2023-07-08T03:21:14;4.53;;;3.28;;
4355;SDS011;64374;51.482;7.408;2023-07-08T03:23:43;4.63;;;3.27;;
4355;SDS011;64374;51.482;7.408;2023-07-08T03:26:12;3.95;;;3.00;;
4355;SDS011;64374;51.482;7.408;2023-07-08T03:28:46;7.07;;;3.20;;
4355;SDS011;64374;51.482;7.408;2023-07-08T03:31:15;4.00;;;3.30;;
4355;SDS011;64374;51.482;7.408;2023-07-08T03:33:46;5.45;;;3.25;;
4355;SDS011;64374;51.482;7.408;2023-07-08T03:36:15;5.10;;;3.30;;
4355;SDS011;64374;51.482;7.408;2023-07-08T03:38:50;3.20;;;2.90;;
4355;SDS011;64374;51.482;7.408;2023-07-08T03:41:19;4.15;;;3.15;;
4355;SDS011;64374;51.482;7.408;2023-07-08T03:43:48;3.60;;;3.00;;
4355;SDS011;64374;51.482;7.408;2023-07-08T03:46:19;4.13;;;3.00;;
4355;SDS011;64374;51.482;7.408;2023-07-08T03:48:54;3.35;;;3.00;;
4355;SDS011;64374;51.482;7.408;2023-07-08T03:51:24;4.90;;;3.33;;
4355;SDS011;64374;51.482;7.408;2023-07-08T03:53:55;4.95;;;3.00;;
4355;SDS011;64374;51.482;7.408;2023-07-08T03:56:24;3.97;;;2.90;;
4355;SDS011;64374;51.482;7.408;2023-07-08T03:58:54;5.85;;;3.30;;
4355;SDS011;64374;51.482;7.408;2023-07-08T04:01:23;5.00;;;3.00;;
4355;SDS011;64374;51.482;7.408;2023-07-08T04:03:56;4.97;;;3.35;;
4355;SDS011;64374;51.482;7.408;2023-07-08T04:06:33;5.50;;;2.97;;
4355;SDS011;64374;51.482;7.408;2023-07-08T04:09:03;5.35;;;3.00;;
4355;SDS011;64374;51.482;7.408;2023-07-08T04:11:31;3.50;;;3.00;;
4355;SDS011;64374;51.482;7.408;2023-07-08T04:14:00;3.38;;;2.97;;
4355;SDS011;64374;51.482;7.408;2023-07-08T04:16:29;3.63;;;3.10;;
4355;SDS011;64374;51.482;7.408;2023-07-08T04:19:04;5.50;;;3.07;;
4355;SDS011;64374;51.482;7.408;2023-07-08T04:21:41;4.53;;;3.05;;
4355;SDS011;64374;51.482;7.408;2023-07-08T04:24:10;4.32;;;3.33;;
4355;SDS011;64374;51.482;7.408;2023-07-08T04:26:43;4.28;;;3.50;;
4355;SDS011;64374;51.482;7.408;2023-07-08T04:29:14;4.32;;;3.35;;
4355;SDS011;64374;51.482;7.408;2023-07-08T04:31:44;3.70;;;3.20;;
4355;SDS011;64374;51.482;7.408;2023-07-08T04:34:14;6.18;;;3.22;;
4355;SDS011;64374;51.482;7.408;2023-07-08T04:36:43;5.82;;;3.30;;
4355;SDS011;64374;51.482;7.408;2023-07-08T04:39:12;5.95;;;3.40;;
4355;SDS011;64374;51.482;7.408;2023-07-08T04:41:41;5.88;;;3.08;;
4355;SDS011;64374;51.482;7.408;2023-07-08T04:44:11;4.97;;;3.40;;
4355;SDS011;64374;51.482;7.408;2023-07-08T04:46:41;7.78;;;3.35;;
4355;SDS011;64374;51.482;7.408;2023-07-08T04:49:14;6.90;;;3.22;;
4355;SDS011;64374;51.482;7.408;2023-07-08T04:51:42;6.27;;;2.70;;
4355;SDS011;64374;51.482;7.408;2023-07-08T04:54:11;5.40;;;3.50;;
4355;SDS011;64374;51.482;7.408;2023-07-08T04:56:40;3.83;;;3.20;;
4355;SDS011;64374;51.482;7.408;2023-07-08T04:59:10;4.88;;;3.50;;
4355;SDS011;64374;51.482;7.408;2023-07-08T05:01:41;3.78;;;3.30;;
4355;SDS011;64374;51.482;7.408;2023-07-08T05:04:16;6.80;;;3.78;;
4355;SDS011;64374;51.482;7.408;2023-07-08T05:06:45;4.88;;;3.30;;
4355;SDS011;64374;51.482;7.408;2023-07-08T05:09:15;4.53;;;2.90;;
4355;SDS011;64374;51.482;7.408;2023-07-08T05:11:44;3.60;;;3.30;;
4355;SDS011;64374;51.482;7.408;2023-07-08T05:14:12;6.53;;;3.90;;
4355;SDS011;64374;51.482;7.408;2023-07-08T05:16:41;5.13;;;3.30;;
4355;SDS011;64374;51.482;7.408;2023-07-08T05:19:10;5.40;;;3.40;;
4355;SDS011;64374;51.482;7.408;2023-07-08T05:21:40;5.63;;;3.28;;
4355;SDS011;64374;51.482;7.408;2023-07-08T05:24:12;8.63;;;3.30;;
4355;SDS011;64374;51.482;7.408;2023-07-08T05:26:42;5.20;;;3.10;;
4355;SDS011;64374;51.482;7.408;2023-07-08T05:29:11;5.20;;;3.55;;
4355;SDS011;64374;51.482;7.408;2023-07-08T05:31:39;4.85;;;4.00;;
4355;SDS011;64374;51.482;7.408;2023-07-08T05:34:13;3.78;;;3.30;;
4355;SDS011;64374;51.482;7.408;2023-07-08T05:36:44;13.65;;;4.10;;
4355;SDS011;64374;51.482;7.408;2023-07-08T05:39:13;4.68;;;3.53;;
4355;SDS011;64374;51.482;7.408;2023-07-08T05:41:42;6.90;;;3.45;;
4355;SDS011;64374;51.482;7.408;2023-07-08T05:44:10;4.10;;;3.40;;
4355;SDS011;64374;51.482;7.408;2023-07-08T05:46:39;5.65;;;3.65;;
4355;SDS011;64374;51.482;7.408;2023-07-08T05:49:08;5.57;;;3.60;;
4355;SDS011;64374;51.482;7.408;2023-07-08T05:51:36;5.82;;;3.95;;
4355;SDS011;64374;51.482;7.408;2023-07-08T05:54:06;7.65;;;3.70;;
4355;SDS011;64374;51.482;7.408;2023-07-08T05:56:35;10.98;;;4.30;;
4355;SDS011;64374;51.482;7.408;2023-07-08T05:59:03;5.97;;;4.20;;
4355;SDS011;64374;51.482;7.408;2023-07-08T06:01:32;6.45;;;3.97;;
4355;SDS011;64374;51.482;7.408;2023-07-08T06:04:02;14.20;;;4.40;;
4355;SDS011;64374;51.482;7.408;2023-07-08T06:06:30;13.90;;;5.30;;
4355;SDS011;64374;51.482;7.408;2023-07-08T06:08:58;11.60;;;4.78;;
4355;SDS011;64374;51.482;7.408;2023-07-08T06:11:28;12.82;;;4.97;;
4355;SDS011;64374;51.482;7.408;2023-07-08T06:13:58;9.85;;;4.90;;
4355;SDS011;64374;51.482;7.408;2023-07-08T06:16:28;7.10;;;3.88;;
4355;SDS011;64374;51.482;7.408;2023-07-08T06:19:07;12.43;;;4.78;;
4355;SDS011;64374;51.482;7.408;2023-07-08T06:21:36;11.80;;;4.65;;
4355;SDS011;64374;51.482;7.408;2023-07-08T06:24:05;8.88;;;4.93;;
4355;SDS011;64374;51.482;7.408;2023-07-08T06:26:35;12.38;;;4.55;;
4355;SDS011;64374;51.482;7.408;2023-07-08T06:29:03;6.70;;;3.90;;
4355;SDS011;64374;51.482;7.408;2023-07-08T06:31:32;6.22;;;3.75;;
4355;SDS011;64374;51.482;7.408;2023-07-08T06:34:01;4.68;;;3.75;;
4355;SDS011;64374;51.482;7.408;2023-07-08T06:36:30;4.82;;;3.60;;
4355;SDS011;64374;51.482;7.408;2023-07-08T06:38:59;5.10;;;3.60;;
4355;SDS011;64374;51.482;7.408;2023-07-08T06:41:27;7.78;;;4.32;;
4355;SDS011;64374;51.482;7.408;2023-07-08T06:43:57;4.35;;;3.95;;
4355;SDS011;64374;51.482;7.408;2023-07-08T06:46:29;4.60;;;3.95;;
4355;SDS011;64374;51.482;7.408;2023-07-08T06:48:59;5.60;;;3.80;;
4355;SDS011;64374;51.482;7.408;2023-07-08T06:51:28;4.93;;;4.40;;
4355;SDS011;64374;51.482;7.408;2023-07-08T06:53:57;9.30;;;4.03;;
4355;SDS011;64374;51.482;7.408;2023-07-08T06:56:25;8.60;;;4.10;;
4355;SDS011;64374;51.482;7.408;2023-07-08T06:58:54;6.97;;;4.10;;
4355;SDS011;64374;51.482;7.408;2023-07-08T07:01:24;5.05;;;3.92;;
4355;SDS011;64374;51.482;7.408;2023-07-08T07:03:52;6.03;;;3.90;;
4355;SDS011;64374;51.482;7.408;2023-07-08T07:06:21;5.75;;;4.15;;
4355;SDS011;64374;51.482;7.408;2023-07-08T07:08:50;4.60;;;3.97;;
4355;SDS011;64374;51.482;7.408;2023-07-08T07:11:19;7.85;;;4.47;;
4355;SDS011;64374;51.482;7.408;2023-07-08T07:13:48;7.10;;;4.40;;
4355;SDS011;64374;51.482;7.408;2023-07-08T07:16:19;9.10;;;4.67;;
4355;SDS011;64374;51.482;7.408;2023-07-08T07:18:47;7.22;;;4.40;;
4355;SDS011;64374;51.482;7.408;2023-07-08T07:21:16;4.07;;;3.50;;
4355;SDS011;64374;51.482;7.408;2023-07-08T07:23:44;9.03;;;4.20;;
4355;SDS011;64374;51.482;7.408;2023-07-08T09:18:46;7.97;;;6.47;;
4355;SDS011;64374;51.482;7.408;2023-07-08T09:21:26;9.00;;;6.13;;
4355;SDS011;64374;51.482;7.408;2023-07-08T09:24:00;7.43;;;6.00;;
4355;SDS011;64374;51.482;7.408;2023-07-08T09:26:37;9.75;;;6.30;;
4355;SDS011;64374;51.482;7.408;2023-07-08T09:29:09;7.47;;;6.00;;
4355;SDS011;64374;51.482;7.408;2023-07-08T09:32:01;7.40;;;5.80;;
4355;SDS011;64374;51.482;7.408;2023-07-08T09:34:44;7.97;;;5.70;;
4355;SDS011;64374;51.482;7.408;2023-07-08T09:37:20;9.50;;;5.40;;
4355;SDS011;64374;51.482;7.408;2023-07-08T09:39:54;7.68;;;6.03;;
4355;SDS011;64374;51.482;7.408;2023-07-08T09:42:25;6.40;;;5.75;;
4355;SDS011;64374;51.482;7.408;2023-07-08T09:44:58;7.97;;;5.80;;
4355;SDS011;64374;51.482;7.408;2023-07-08T09:47:29;7.10;;;5.40;;
4355;SDS011;64374;51.482;7.408;2023-07-08T09:50:03;7.78;;;5.50;;
4355;SDS011;64374;51.482;7.408;2023-07-08T09:52:43;7.32;;;5.70;;
4355;SDS011;64374;51.482;7.408;2023-07-08T09:55:12;7.38;;;5.45;;
4355;SDS011;64374;51.482;7.408;2023-07-08T09:57:41;7.25;;;5.88;;
4355;SDS011;64374;51.482;7.408;2023-07-08T10:00:18;6.28;;;5.38;;
4355;SDS011;64374;51.482;7.408;2023-07-08T10:02:57;5.80;;;5.20;;
4355;SDS011;64374;51.482;7.408;2023-07-08T10:05:32;5.72;;;5.07;;
4355;SDS011;64374;51.482;7.408;2023-07-08T10:08:14;8.20;;;5.63;;
4355;SDS011;64374;51.482;7.408;2023-07-08T10:10:45;8.00;;;5.53;;
4355;SDS011;64374;51.482;7.408;2023-07-08T10:13:18;6.53;;;5.07;;
4355;SDS011;64374;51.482;7.408;2023-07-08T10:15:54;8.20;;;5.50;;
4355;SDS011;64374;51.482;7.408;2023-07-08T10:18:27;5.25;;;4.75;;
4355;SDS011;64374;51.482;7.408;2023-07-08T10:21:08;5.78;;;4.70;;
4355;SDS011;64374;51.482;7.408;2023-07-08T10:23:48;5.73;;;5.03;;
4355;SDS011;64374;51.482;7.408;2023-07-08T10:26:24;6.10;;;4.60;;
4355;SDS011;64374;51.482;7.408;2023-07-08T10:28:58;6.00;;;4.33;;
4355;SDS011;64374;51.482;7.408;2023-07-08T10:31:46;6.03;;;3.50;;
4355;SDS011;64374;51.482;7.408;2023-07-08T10:34:27;4.50;;;4.10;;
4355;SDS011;64374;51.482;7.408;2023-07-08T10:37:14;6.13;;;4.00;;
4355;SDS011;64374;51.482;7.408;2023-07-08T10:39:53;5.60;;;4.70;;
4355;SDS011;64374;51.482;7.408;2023-07-08T10:42:33;5.53;;;4.20;;
4355;SDS011;64374;51.482;7.408;2023-07-08T10:45:23;6.82;;;4.68;;
4355;SDS011;64374;51.482;7.408;2023-07-08T10:48:04;7.23;;;4.40;;
4355;SDS011;64374;51.482;7.408;2023-07-08T10:50:47;4.90;;;4.00;;
4355;SDS011;64374;51.482;7.408;2023-07-08T10:53:35;6.85;;;4.68;;
4355;SDS011;64374;51.482;7.408;2023-07-08T10:56:15;7.05;;;4.60;;
4355;SDS011;64374;51.482;7.408;2023-07-08T10:58:52;5.22;;;4.50;;
4355;SDS011;64374;51.482;7.408;2023-07-08T11:01:51;6.60;;;4.93;;
4355;SDS011;64374;51.482;7.408;2023-07-08T11:04:47;5.53;;;4.40;;
4355;SDS011;64374;51.482;7.408;2023-07-08T11:07:28;5.03;;;4.40;;
4355;SDS011;64374;51.482;7.408;2023-07-08T11:10:06;5.07;;;4.32;;
4355;SDS011;64374;51.482;7.408;2023-07-08T11:12:42;5.93;;;5.13;;
4355;SDS011;64374;51.482;7.408;2023-07-08T11:15:16;6.33;;;5.00;;
4355;SDS011;64374;51.482;7.408;2023-07-08T11:17:52;4.43;;;4.03;;
4355;SDS011;64374;51.482;7.408;2023-07-08T11:20:32;5.35;;;4.30;;
4355;SDS011;64374;51.482;7.408;2023-07-08T11:23:08;4.50;;;4.10;;
4355;SDS011;64374;51.482;7.408;2023-07-08T11:25:47;4.97;;;4.20;;
4355;SDS011;64374;51.482;7.408;2023-07-08T11:28:18;4.40;;;4.00;;
4355;SDS011;64374;51.482;7.408;2023-07-08T11:30:51;5.30;;;4.47;;
4355;SDS011;64374;51.482;7.408;2023-07-08T11:33:21;6.78;;;4.43;;
4355;SDS011;64374;51.482;7.408;2023-07-08T11:36:00;4.80;;;4.30;;
4355;SDS011;64374;51.482;7.408;2023-07-08T11:38:32;4.63;;;4.22;;
4355;SDS011;64374;51.482;7.408;2023-07-08T11:41:11;5.10;;;4.30;;
4355;SDS011;64374;51.482;7.408;2023-07-08T11:43:44;4.38;;;3.97;;
4355;SDS011;64374;51.482;7.408;2023-07-08T11:46:18;6.57;;;4.85;;
4355;SDS011;64374;51.482;7.408;2023-07-08T11:48:48;5.97;;;4.82;;
4355;SDS011;64374;51.482;7.408;2023-07-08T11:51:22;5.38;;;4.88;;
4355;SDS011;64374;51.482;7.408;2023-07-08T11:53:58;7.03;;;4.60;;
4355;SDS011;64374;51.482;7.408;2023-07-08T11:56:28;5.10;;;4.60;;
4355;SDS011;64374;51.482;7.408;2023-07-08T11:59:16;4.60;;;4.20;;
4355;SDS011;64374;51.482;7.408;2023-07-08T12:01:47;7.47;;;6.28;;
4355;SDS011;64374;51.482;7.408;2023-07-08T12:04:24;6.68;;;5.95;;
4355;SDS011;64374;51.482;7.408;2023-07-08T12:07:10;7.60;;;4.30;;
4355;SDS011;64374;51.482;7.408;2023-07-08T12:09:47;5.68;;;4.20;;
4355;SDS011;64374;51.482;7.408;2023-07-08T12:12:29;5.87;;;4.40;;
4355;SDS011;64374;51.482;7.408;2023-07-08T12:15:04;4.55;;;3.67;;
4355;SDS011;64374;51.482;7.408;2023-07-08T12:17:39;5.70;;;3.92;;
4355;SDS011;64374;51.482;7.408;2023-07-08T12:20:13;5.03;;;4.40;;
4355;SDS011;64374;51.482;7.408;2023-07-08T12:22:47;4.73;;;4.20;;
4355;SDS011;64374;51.482;7.408;2023-07-08T12:25:17;4.93;;;3.80;;
4355;SDS011;64374;51.482;7.408;2023-07-08T12:27:47;6.00;;;4.55;;
4355;SDS011;64374;51.482;7.408;2023-07-08T12:30:16;6.80;;;4.03;;
4355;SDS011;64374;51.482;7.408;2023-07-08T12:32:45;6.00;;;5.00;;
4355;SDS011;64374;51.482;7.408;2023-07-08T12:35:17;5.13;;;3.85;;
4355;SDS011;64374;51.482;7.408;2023-07-08T12:37:52;6.68;;;5.70;;
4355;SDS011;64374;51.482;7.408;2023-07-08T12:40:27;5.25;;;4.00;;
4355;SDS011;64374;51.482;7.408;2023-07-08T12:42:57;6.90;;;4.10;;
4355;SDS011;64374;51.482;7.408;2023-07-08T12:45:31;4.40;;;4.00;;
4355;SDS011;64374;51.482;7.408;2023-07-08T12:48:21;5.10;;;4.25;;
4355;SDS011;64374;51.482;7.408;2023-07-08T12:50:49;5.15;;;4.20;;
4355;SDS011;64374;51.482;7.408;2023-07-08T12:53:20;4.70;;;4.20;;
4355;SDS011;64374;51.482;7.408;2023-07-08T12:55:48;6.10;;;4.32;;
4355;SDS011;64374;51.482;7.408;2023-07-08T12:58:27;4.60;;;4.00;;
4355;SDS011;64374;51.482;7.408;2023-07-08T13:00:59;4.80;;;4.05;;
4355;SDS011;64374;51.482;7.408;2023-07-08T13:03:33;5.22;;;4.72;;
4355;SDS011;64374;51.482;7.408;2023-07-08T13:06:05;5.05;;;4.47;;
4355;SDS011;64374;51.482;7.408;2023-07-08T13:08:38;9.35;;;4.30;;
4355;SDS011;64374;51.482;7.408;2023-07-08T13:11:07;4.63;;;4.10;;
4355;SDS011;64374;51.482;7.408;2023-07-08T13:13:47;6.35;;;4.90;;
4355;SDS011;64374;51.482;7.408;2023-07-08T13:16:28;4.50;;;4.10;;
4355;SDS011;64374;51.482;7.408;2023-07-08T13:19:00;4.65;;;4.25;;
4355;SDS011;64374;51.482;7.408;2023-07-08T13:21:29;5.57;;;4.30;;
4355;SDS011;64374;51.482;7.408;2023-07-08T13:24:02;5.78;;;4.10;;
4355;SDS011;64374;51.482;7.408;2023-07-08T13:26:35;7.50;;;4.72;;
4355;SDS011;64374;51.482;7.408;2023-07-08T13:29:06;6.93;;;4.75;;
4355;SDS011;64374;51.482;7.408;2023-07-08T13:31:43;5.53;;;4.00;;
4355;SDS011;64374;51.482;7.408;2023-07-08T13:34:17;5.40;;;4.28;;
4355;SDS011;64374;51.482;7.408;2023-07-08T13:36:49;4.80;;;4.30;;
4355;SDS011;64374;51.482;7.408;2023-07-08T13:39:22;4.82;;;3.97;;
4355;SDS011;64374;51.482;7.408;2023-07-08T13:41:55;5.85;;;4.60;;
4355;SDS011;64374;51.482;7.408;2023-07-08T13:44:26;4.87;;;3.97;;
4355;SDS011;64374;51.482;7.408;2023-07-08T13:46:55;4.72;;;4.32;;
4355;SDS011;64374;51.482;7.408;2023-07-08T13:49:28;8.82;;;4.45;;
4355;SDS011;64374;51.482;7.408;2023-07-08T13:52:16;4.63;;;4.07;;
4355;SDS011;64374;51.482;7.408;2023-07-08T13:54:59;6.03;;;4.50;;
4355;SDS011;64374;51.482;7.408;2023-07-08T13:57:32;4.83;;;4.10;;
4355;SDS011;64374;51.482;7.408;2023-07-08T14:00:02;5.47;;;4.13;;
4355;SDS011;64374;51.482;7.408;2023-07-08T14:02:37;8.40;;;4.80;;
4355;SDS011;64374;51.482;7.408;2023-07-08T14:05:11;4.40;;;4.00;;
4355;SDS011;64374;51.482;7.408;2023-07-08T14:07:42;4.90;;;4.40;;
4355;SDS011;64374;51.482;7.408;2023-07-08T14:10:13;4.90;;;4.00;;
4355;SDS011;64374;51.482;7.408;2023-07-08T14:12:41;6.32;;;3.90;;
4355;SDS011;64374;51.482;7.408;2023-07-08T14:15:09;5.43;;;4.10;;
4355;SDS011;64374;51.482;7.408;2023-07-08T14:17:37;5.70;;;4.03;;
4355;SDS011;64374;51.482;7.408;2023-07-08T14:20:11;5.72;;;4.70;;
4355;SDS011;64374;51.482;7.408;2023-07-08T14:22:42;5.40;;;4.20;;
4355;SDS011;64374;51.482;7.408;2023-07-08T14:25:15;6.53;;;4.60;;
4355;SDS011;64374;51.482;7.408;2023-07-08T14:27:48;4.67;;;3.80;;
4355;SDS011;64374;51.482;7.408;2023-07-08T14:30:16;4.73;;;3.97;;
4355;SDS011;64374;51.482;7.408;2023-07-08T14:33:10;5.90;;;4.00;;
4355;SDS011;64374;51.482;7.408;2023-07-08T14:35:40;5.33;;;4.50;;
4355;SDS011;64374;51.482;7.408;2023-07-08T14:38:09;5.20;;;4.70;;
4355;SDS011;64374;51.482;7.408;2023-07-08T14:40:52;4.30;;;3.90;;
4355;SDS011;64374;51.482;7.408;2023-07-08T14:43:24;5.82;;;4.20;;
4355;SDS011;64374;51.482;7.408;2023-07-08T14:45:56;5.20;;;4.07;;
4355;SDS011;64374;51.482;7.408;2023-07-08T14:48:27;5.78;;;4.45;;
4355;SDS011;64374;51.482;7.408;2023-07-08T14:50:57;6.50;;;4.63;;
4355;SDS011;64374;51.482;7.408;2023-07-08T14:53:26;5.00;;;4.22;;
4355;SDS011;64374;51.482;7.408;2023-07-08T14:55:56;5.70;;;5.10;;
4355;SDS011;64374;51.482;7.408;2023-07-08T14:58:26;4.70;;;3.90;;
4355;SDS011;64374;51.482;7.408;2023-07-08T15:00:59;6.18;;;5.03;;
4355;SDS011;64374;51.482;7.408;2023-07-08T15:03:29;5.50;;;4.60;;
4355;SDS011;64374;51.482;7.408;2023-07-08T15:06:01;5.82;;;4.70;;
4355;SDS011;64374;51.482;7.408;2023-07-08T15:08:30;5.28;;;4.78;;
4355;SDS011;64374;51.482;7.408;2023-07-08T15:11:03;4.60;;;4.20;;
4355;SDS011;64374;51.482;7.408;2023-07-08T15:13:34;5.20;;;3.90;;
4355;SDS011;64374;51.482;7.408;2023-07-08T15:16:04;5.80;;;4.30;;
4355;SDS011;64374;51.482;7.408;2023-07-08T15:18:34;5.63;;;4.88;;
4355;SDS011;64374;51.482;7.408;2023-07-08T15:21:03;6.30;;;4.35;;
4355;SDS011;64374;51.482;7.408;2023-07-08T15:23:31;7.53;;;5.03;;
4355;SDS011;64374;51.482;7.408;2023-07-08T15:26:00;6.55;;;5.10;;
4355;SDS011;64374;51.482;7.408;2023-07-08T15:28:37;6.53;;;5.18;;
4355;SDS011;64374;51.482;7.408;2023-07-08T15:31:15;6.38;;;4.85;;
4355;SDS011;64374;51.482;7.408;2023-07-08T15:33:45;5.35;;;4.85;;
4355;SDS011;64374;51.482;7.408;2023-07-08T15:36:13;7.85;;;5.22;;
4355;SDS011;64374;51.482;7.408;2023-07-08T15:38:42;6.33;;;5.03;;
4355;SDS011;64374;51.482;7.408;2023-07-08T15:41:13;7.22;;;5.40;;
4355;SDS011;64374;51.482;7.408;2023-07-08T15:43:49;7.93;;;5.28;;
4355;SDS011;64374;51.482;7.408;2023-07-08T15:46:20;6.23;;;5.33;;
4355;SDS011;64374;51.482;7.408;2023-07-08T15:48:51;7.13;;;5.03;;
4355;SDS011;64374;51.482;7.408;2023-07-08T15:51:23;6.15;;;4.60;;
4355;SDS011;64374;51.482;7.408;2023-07-08T15:53:51;6.93;;;5.22;;
4355;SDS011;64374;51.482;7.408;2023-07-08T15:56:20;4.80;;;4.30;;
4355;SDS011;64374;51.482;7.408;2023-07-08T15:58:51;6.00;;;4.50;;
4355;SDS011;64374;51.482;7.408;2023-07-08T16:01:20;7.28;;;5.57;;
4355;SDS011;64374;51.482;7.408;2023-07-08T16:03:50;6.80;;;4.85;;
4355;SDS011;64374;51.482;7.408;2023-07-08T16:06:21;5.63;;;4.90;;
4355;SDS011;64374;51.482;7.408;2023-07-08T16:08:49;5.27;;;4.60;;
4355;SDS011;64374;51.482;7.408;2023-07-08T16:11:28;8.37;;;5.40;;
4355;SDS011;64374;51.482;7.408;2023-07-08T16:14:07;10.10;;;5.20;;
4355;SDS011;64374;51.482;7.408;2023-07-08T16:16:38;5.50;;;4.87;;
4355;SDS011;64374;51.482;7.408;2023-07-08T16:19:08;6.00;;;4.80;;
4355;SDS011;64374;51.482;7.408;2023-07-08T16:21:38;5.95;;;4.70;;
4355;SDS011;64374;51.482;7.408;2023-07-08T16:24:07;5.50;;;4.57;;
4355;SDS011;64374;51.482;7.408;2023-07-08T16:26:36;7.68;;;5.15;;
4355;SDS011;64374;51.482;7.408;2023-07-08T16:29:09;10.27;;;5.70;;
4355;SDS011;64374;51.482;7.408;2023-07-08T16:31:43;9.25;;;6.03;;
4355;SDS011;64374;51.482;7.408;2023-07-08T16:34:12;7.68;;;6.38;;
4355;SDS011;64374;51.482;7.408;2023-07-08T16:36:42;8.57;;;6.50;;
4355;SDS011;64374;51.482;7.408;2023-07-08T16:39:10;9.40;;;8.02;;
4355;SDS011;64374;51.482;7.408;2023-07-08T16:41:38;8.07;;;7.28;;
4355;SDS011;64374;51.482;7.408;2023-07-08T16:44:13;10.17;;;7.37;;
4355;SDS011;64374;51.482;7.408;2023-07-08T16:46:43;9.85;;;6.20;;
4355;SDS011;64374;51.482;7.408;2023-07-08T16:49:11;7.00;;;6.20;;
4355;SDS011;64374;51.482;7.408;2023-07-08T16:52:02;6.15;;;5.55;;
4355;SDS011;64374;51.482;7.408;2023-07-08T16:54:36;7.05;;;5.80;;
4355;SDS011;64374;51.482;7.408;2023-07-08T16:57:07;7.80;;;5.43;;
4355;SDS011;64374;51.482;7.408;2023-07-08T16:59:39;10.20;;;6.00;;
4355;SDS011;64374;51.482;7.408;2023-07-08T17:02:12;7.93;;;5.90;;
4355;SDS011;64374;51.482;7.408;2023-07-08T17:04:43;8.90;;;6.40;;
4355;SDS011;64374;51.482;7.408;2023-07-08T17:07:12;8.73;;;6.35;;
4355;SDS011;64374;51.482;7.408;2023-07-08T17:09:43;9.93;;;5.90;;
4355;SDS011;64374;51.482;7.408;2023-07-08T17:12:12;6.57;;;5.72;;
4355;SDS011;64374;51.482;7.408;2023-07-08T17:14:42;6.47;;;5.78;;
4355;SDS011;64374;51.482;7.408;2023-07-08T17:17:12;7.90;;;5.82;;
4355;SDS011;64374;51.482;7.408;2023-07-08T17:19:41;8.88;;;5.40;;
4355;SDS011;64374;51.482;7.408;2023-07-08T17:22:10;9.27;;;5.85;;
4355;SDS011;64374;51.482;7.408;2023-07-08T17:24:45;7.67;;;5.30;;